Angus, NM

6:06 AM MDT on September 21, 2014 (GMT -0600)
Sierra Blanca Regional | Change Station
CLOSE
Current Station
Airport
Location: Ruidoso,
Elevation: 6811 ft
Nearby Weather Stations
Active Advisory: Flash Flood Watch

Elev 6811 ft 33.46 °N, 105.53 °W | Updated 31 minutes ago

Mostly Cloudy
Mostly Cloudy
57 °F
Feels Like 57 °F
N
6
Wind Variable Wind from South

Today
High -- | Low -- °F
--% Chance of Precip.
Yesterday
High -- | Low -- °F
Precip. -- in
6:49 AM 7:00 PM
Waning Crescent, 7% visible
Pressure 30.34 in
Visibility 5.0 miles
Clouds Few 600 ft
Dew Point 57 °F
Humidity 100%
Rainfall 0.00 in
Snow Depth 3 in , 0 in , 1 in
UV 0 out of 12
Pollen 7.30 out of 12
Air Quality Not available.
Flu Activity Not available.
METAR KSRR 211135Z AUTO 19005KT 5SM BR FEW006 14/14 A3034 RMK AO2

More Conditions Fewer Conditions

Pressure 30.34 in
Visibility 5.0 miles
Clouds Few 600 ft
Dew Point 57 °F
Humidity 100%
Rainfall 0.00 in
Snow Depth 3 in , 0 in , 1 in
UV 0 out of 12
Pollen 7.30 out of 12
Air Quality Not available.
Flu Activity Not available.
METAR KSRR 211135Z AUTO 19005KT 5SM BR FEW006 14/14 A3034 RMK AO2

More Conditions Fewer Conditions

Nowcast | as of 5:00 am MDT on September 21, 2014

Through 7 am MDT...scattered showers and isolated thunderstorms will continue to drift to the west at 10 to 15 mph across Chaves County as well as the southeast half of Lincoln County. Rainfall amounts with this activity should range from a few hundredths of an inch to as much as a half inch. Other isolated shower or storm development would not be out of the question immediately surrounding this present activity. Some locales potentially affected include Lake Arthur... Roswell...Dunken...Arabela...Picacho and Ruidoso.

×

10-Day Weather Forecast

Almanac

Astronomy

Sep. 21, 2014 Rise Set
Actual Time 6:49 AM MDT 7:00 PM MDT
Civil Twilight 6:24 AM MDT 7:25 PM MDT
Nautical Twilight 5:55 AM MDT 7:54 PM MDT
Astronomical Twilight 5:26 AM MDT 8:23 PM MDT
Moon 4:31 AM MDT 5:33 PM MDT
Length of Visible Light 13h 00m
Length of Day
12h 10m
Tomorrow will be 2m 3s shorter.
Waning Crescent, 7% of the Moon is Illuminated
Today
Waning Crescent
Sep 24
New
Oct 1
First Quarter
Oct 8
Full
Oct 15
Last Quarter

Today's Extremes

State Highs State Lows

Community

WunderPhotos

Upload Photos

1,755,126 photos uploaded!

Nearby

Snow Depth

Station Depth Elevation
Wesner Springs 3 in 11120 ft
Tolby 0 in 10180 ft
Silver Creek Divide 1 in 9000 ft
Signal Peak 1 in 8360 ft
Red River Pass #2 0 in 9850 ft

Earthquake Activity

City Distance Mag. Time & Date
No recent earthquake activity has been reported nearby.
Minimum magnitude displayed is 2.5.

Coastal Water Temperatures

Place Temperature
No Stations Reporting

Nearby Weather Stations